sensor_id;sensor_type;location;lat;lon;timestamp;P1;durP1;ratioP1;P2;durP2;ratioP2
2784;SDS011;57944;48.722;9.316;2024-02-15T00:02:01;7.87;;;3.27;;
2784;SDS011;57944;48.722;9.316;2024-02-15T00:04:32;5.20;;;3.00;;
2784;SDS011;57944;48.722;9.316;2024-02-15T00:07:03;4.43;;;2.77;;
2784;SDS011;57944;48.722;9.316;2024-02-15T00:09:37;14.43;;;3.70;;
2784;SDS011;57944;48.722;9.316;2024-02-15T00:12:07;6.23;;;2.77;;
2784;SDS011;57944;48.722;9.316;2024-02-15T00:14:39;4.83;;;2.80;;
2784;SDS011;57944;48.722;9.316;2024-02-15T00:17:10;5.67;;;3.00;;
2784;SDS011;57944;48.722;9.316;2024-02-15T00:19:41;6.80;;;2.90;;
2784;SDS011;57944;48.722;9.316;2024-02-15T00:22:11;4.63;;;2.90;;
2784;SDS011;57944;48.722;9.316;2024-02-15T00:24:45;5.63;;;3.07;;
2784;SDS011;57944;48.722;9.316;2024-02-15T00:27:15;4.13;;;2.70;;
2784;SDS011;57944;48.722;9.316;2024-02-15T00:29:47;3.80;;;2.57;;
2784;SDS011;57944;48.722;9.316;2024-02-15T00:32:17;6.60;;;3.47;;
2784;SDS011;57944;48.722;9.316;2024-02-15T00:34:48;6.57;;;2.53;;
2784;SDS011;57944;48.722;9.316;2024-02-15T00:37:20;3.93;;;2.60;;
2784;SDS011;57944;48.722;9.316;2024-02-15T00:39:53;9.67;;;3.10;;
2784;SDS011;57944;48.722;9.316;2024-02-15T00:42:24;5.50;;;2.47;;
2784;SDS011;57944;48.722;9.316;2024-02-15T00:44:54;3.53;;;2.17;;
2784;SDS011;57944;48.722;9.316;2024-02-15T00:47:25;5.10;;;2.00;;
2784;SDS011;57944;48.722;9.316;2024-02-15T00:49:56;3.83;;;2.43;;
2784;SDS011;57944;48.722;9.316;2024-02-15T00:52:27;4.87;;;2.00;;
2784;SDS011;57944;48.722;9.316;2024-02-15T00:55:00;5.13;;;2.40;;
2784;SDS011;57944;48.722;9.316;2024-02-15T00:57:31;3.93;;;2.30;;
2784;SDS011;57944;48.722;9.316;2024-02-15T01:00:01;3.90;;;2.37;;
2784;SDS011;57944;48.722;9.316;2024-02-15T01:02:36;4.93;;;2.37;;
2784;SDS011;57944;48.722;9.316;2024-02-15T01:05:07;4.07;;;2.20;;
2784;SDS011;57944;48.722;9.316;2024-02-15T01:07:38;6.60;;;2.70;;
2784;SDS011;57944;48.722;9.316;2024-02-15T01:10:11;4.30;;;2.30;;
2784;SDS011;57944;48.722;9.316;2024-02-15T01:12:41;8.93;;;2.50;;
2784;SDS011;57944;48.722;9.316;2024-02-15T01:15:12;4.00;;;2.10;;
2784;SDS011;57944;48.722;9.316;2024-02-15T01:17:45;5.97;;;2.30;;
2784;SDS011;57944;48.722;9.316;2024-02-15T01:20:16;5.73;;;2.53;;
2784;SDS011;57944;48.722;9.316;2024-02-15T01:22:47;5.10;;;2.07;;
2784;SDS011;57944;48.722;9.316;2024-02-15T01:25:21;3.80;;;2.33;;
2784;SDS011;57944;48.722;9.316;2024-02-15T01:27:53;3.70;;;2.10;;
2784;SDS011;57944;48.722;9.316;2024-02-15T01:30:24;4.00;;;2.00;;
2784;SDS011;57944;48.722;9.316;2024-02-15T01:32:55;4.00;;;2.07;;
2784;SDS011;57944;48.722;9.316;2024-02-15T01:35:27;4.57;;;2.77;;
2784;SDS011;57944;48.722;9.316;2024-02-15T01:37:57;8.20;;;2.90;;
2784;SDS011;57944;48.722;9.316;2024-02-15T01:40:31;10.77;;;3.37;;
2784;SDS011;57944;48.722;9.316;2024-02-15T01:43:03;4.30;;;2.67;;
2784;SDS011;57944;48.722;9.316;2024-02-15T01:45:34;5.47;;;3.60;;
2784;SDS011;57944;48.722;9.316;2024-02-15T01:48:05;4.33;;;2.20;;
2784;SDS011;57944;48.722;9.316;2024-02-15T01:50:36;5.50;;;3.33;;
2784;SDS011;57944;48.722;9.316;2024-02-15T01:53:08;5.97;;;3.83;;
2784;SDS011;57944;48.722;9.316;2024-02-15T01:55:43;15.17;;;4.90;;
2784;SDS011;57944;48.722;9.316;2024-02-15T01:58:13;5.10;;;3.60;;
2784;SDS011;57944;48.722;9.316;2024-02-15T02:00:46;7.33;;;3.33;;
2784;SDS011;57944;48.722;9.316;2024-02-15T02:03:18;6.50;;;3.60;;
2784;SDS011;57944;48.722;9.316;2024-02-15T02:05:50;6.33;;;3.27;;
2784;SDS011;57944;48.722;9.316;2024-02-15T02:08:21;7.90;;;2.93;;
2784;SDS011;57944;48.722;9.316;2024-02-15T02:10:55;4.33;;;3.20;;
2784;SDS011;57944;48.722;9.316;2024-02-15T02:13:25;6.33;;;4.33;;
2784;SDS011;57944;48.722;9.316;2024-02-15T02:15:57;3.87;;;3.00;;
2784;SDS011;57944;48.722;9.316;2024-02-15T02:18:28;6.27;;;4.97;;
2784;SDS011;57944;48.722;9.316;2024-02-15T02:20:58;6.03;;;3.53;;
2784;SDS011;57944;48.722;9.316;2024-02-15T02:23:32;7.23;;;4.10;;
2784;SDS011;57944;48.722;9.316;2024-02-15T02:26:05;7.83;;;4.60;;
2784;SDS011;57944;48.722;9.316;2024-02-15T02:28:36;6.30;;;4.20;;
2784;SDS011;57944;48.722;9.316;2024-02-15T02:31:07;11.67;;;5.10;;
2784;SDS011;57944;48.722;9.316;2024-02-15T02:33:38;8.33;;;4.77;;
2784;SDS011;57944;48.722;9.316;2024-02-15T02:36:09;8.17;;;4.70;;
2784;SDS011;57944;48.722;9.316;2024-02-15T02:38:40;11.40;;;4.93;;
2784;SDS011;57944;48.722;9.316;2024-02-15T02:41:14;15.03;;;5.57;;
2784;SDS011;57944;48.722;9.316;2024-02-15T02:43:49;10.47;;;4.17;;
2784;SDS011;57944;48.722;9.316;2024-02-15T02:46:20;6.70;;;4.50;;
2784;SDS011;57944;48.722;9.316;2024-02-15T02:48:51;6.90;;;4.00;;
2784;SDS011;57944;48.722;9.316;2024-02-15T02:51:22;7.30;;;4.23;;
2784;SDS011;57944;48.722;9.316;2024-02-15T02:53:52;7.70;;;4.40;;
2784;SDS011;57944;48.722;9.316;2024-02-15T02:56:26;9.70;;;4.23;;
2784;SDS011;57944;48.722;9.316;2024-02-15T02:58:57;7.83;;;4.60;;
2784;SDS011;57944;48.722;9.316;2024-02-15T03:01:27;7.03;;;4.90;;
2784;SDS011;57944;48.722;9.316;2024-02-15T03:03:59;6.40;;;4.23;;
2784;SDS011;57944;48.722;9.316;2024-02-15T03:06:30;8.77;;;4.03;;
2784;SDS011;57944;48.722;9.316;2024-02-15T03:09:01;8.47;;;3.40;;
2784;SDS011;57944;48.722;9.316;2024-02-15T03:11:39;6.87;;;3.73;;
2784;SDS011;57944;48.722;9.316;2024-02-15T03:14:09;8.77;;;3.40;;
2784;SDS011;57944;48.722;9.316;2024-02-15T03:16:40;6.57;;;5.10;;
2784;SDS011;57944;48.722;9.316;2024-02-15T03:19:11;6.33;;;3.87;;
2784;SDS011;57944;48.722;9.316;2024-02-15T03:21:42;5.93;;;3.53;;
2784;SDS011;57944;48.722;9.316;2024-02-15T03:24:13;7.57;;;3.97;;
2784;SDS011;57944;48.722;9.316;2024-02-15T03:26:46;4.63;;;2.93;;
2784;SDS011;57944;48.722;9.316;2024-02-15T03:29:18;5.63;;;3.23;;
2784;SDS011;57944;48.722;9.316;2024-02-15T03:31:50;12.60;;;3.17;;
2784;SDS011;57944;48.722;9.316;2024-02-15T03:34:22;5.07;;;3.40;;
2784;SDS011;57944;48.722;9.316;2024-02-15T03:36:53;7.83;;;4.60;;
2784;SDS011;57944;48.722;9.316;2024-02-15T03:39:24;6.60;;;4.03;;
2784;SDS011;57944;48.722;9.316;2024-02-15T03:41:58;8.57;;;3.80;;
2784;SDS011;57944;48.722;9.316;2024-02-15T03:44:28;6.57;;;4.07;;
2784;SDS011;57944;48.722;9.316;2024-02-15T03:46:59;5.83;;;3.93;;
2784;SDS011;57944;48.722;9.316;2024-02-15T03:49:31;6.20;;;3.80;;
2784;SDS011;57944;48.722;9.316;2024-02-15T03:52:02;6.67;;;3.80;;
2784;SDS011;57944;48.722;9.316;2024-02-15T03:54:33;5.53;;;4.30;;
2784;SDS011;57944;48.722;9.316;2024-02-15T03:57:06;7.47;;;3.70;;
2784;SDS011;57944;48.722;9.316;2024-02-15T03:59:38;5.93;;;4.10;;
2784;SDS011;57944;48.722;9.316;2024-02-15T04:02:09;6.97;;;4.50;;
2784;SDS011;57944;48.722;9.316;2024-02-15T04:04:41;6.30;;;4.53;;
2784;SDS011;57944;48.722;9.316;2024-02-15T04:07:13;7.87;;;4.60;;
2784;SDS011;57944;48.722;9.316;2024-02-15T04:09:45;7.20;;;5.17;;
2784;SDS011;57944;48.722;9.316;2024-02-15T04:12:18;6.53;;;4.00;;
2784;SDS011;57944;48.722;9.316;2024-02-15T04:14:49;6.30;;;4.67;;
2784;SDS011;57944;48.722;9.316;2024-02-15T04:17:21;11.37;;;5.20;;
2784;SDS011;57944;48.722;9.316;2024-02-15T04:19:52;5.97;;;4.50;;
2784;SDS011;57944;48.722;9.316;2024-02-15T04:22:22;6.20;;;4.17;;
2784;SDS011;57944;48.722;9.316;2024-02-15T04:24:53;7.57;;;4.73;;
2784;SDS011;57944;48.722;9.316;2024-02-15T04:27:26;14.30;;;6.20;;
2784;SDS011;57944;48.722;9.316;2024-02-15T04:29:56;8.80;;;6.50;;
2784;SDS011;57944;48.722;9.316;2024-02-15T04:32:29;8.37;;;5.70;;
2784;SDS011;57944;48.722;9.316;2024-02-15T04:35:01;10.33;;;5.80;;
2784;SDS011;57944;48.722;9.316;2024-02-15T04:37:36;8.50;;;6.00;;
2784;SDS011;57944;48.722;9.316;2024-02-15T04:40:07;8.87;;;6.53;;
2784;SDS011;57944;48.722;9.316;2024-02-15T04:42:43;8.60;;;6.13;;
2784;SDS011;57944;48.722;9.316;2024-02-15T04:45:14;10.00;;;6.80;;
2784;SDS011;57944;48.722;9.316;2024-02-15T04:47:47;13.93;;;6.90;;
2784;SDS011;57944;48.722;9.316;2024-02-15T04:50:20;7.97;;;5.77;;
2784;SDS011;57944;48.722;9.316;2024-02-15T04:52:52;10.30;;;7.07;;
2784;SDS011;57944;48.722;9.316;2024-02-15T04:55:23;11.57;;;7.20;;
2784;SDS011;57944;48.722;9.316;2024-02-15T04:58:00;15.40;;;8.23;;
2784;SDS011;57944;48.722;9.316;2024-02-15T05:00:32;7.83;;;5.53;;
2784;SDS011;57944;48.722;9.316;2024-02-15T05:03:03;11.40;;;7.27;;
2784;SDS011;57944;48.722;9.316;2024-02-15T05:05:34;17.20;;;9.40;;
2784;SDS011;57944;48.722;9.316;2024-02-15T05:08:05;18.63;;;9.93;;
2784;SDS011;57944;48.722;9.316;2024-02-15T05:10:36;14.87;;;7.60;;
2784;SDS011;57944;48.722;9.316;2024-02-15T05:13:09;14.70;;;7.70;;
2784;SDS011;57944;48.722;9.316;2024-02-15T05:15:43;12.50;;;6.90;;
2784;SDS011;57944;48.722;9.316;2024-02-15T05:18:13;9.67;;;7.03;;
2784;SDS011;57944;48.722;9.316;2024-02-15T05:20:45;10.73;;;7.00;;
2784;SDS011;57944;48.722;9.316;2024-02-15T05:23:16;11.87;;;6.77;;
2784;SDS011;57944;48.722;9.316;2024-02-15T05:25:46;14.20;;;7.53;;
2784;SDS011;57944;48.722;9.316;2024-02-15T05:28:19;14.50;;;7.50;;
2784;SDS011;57944;48.722;9.316;2024-02-15T05:31:08;12.40;;;6.77;;
2784;SDS011;57944;48.722;9.316;2024-02-15T05:33:41;10.63;;;7.20;;
2784;SDS011;57944;48.722;9.316;2024-02-15T05:36:12;10.50;;;6.90;;
2784;SDS011;57944;48.722;9.316;2024-02-15T05:38:47;13.70;;;7.97;;
2784;SDS011;57944;48.722;9.316;2024-02-15T05:41:19;13.23;;;8.50;;
2784;SDS011;57944;48.722;9.316;2024-02-15T05:43:53;9.90;;;6.30;;
2784;SDS011;57944;48.722;9.316;2024-02-15T05:46:24;13.40;;;6.97;;
2784;SDS011;57944;48.722;9.316;2024-02-15T05:48:55;12.83;;;7.20;;
2784;SDS011;57944;48.722;9.316;2024-02-15T05:51:26;10.10;;;6.20;;
2784;SDS011;57944;48.722;9.316;2024-02-15T05:53:57;9.90;;;7.70;;
2784;SDS011;57944;48.722;9.316;2024-02-15T05:56:28;9.53;;;6.33;;
2784;SDS011;57944;48.722;9.316;2024-02-15T05:59:01;14.00;;;8.33;;
2784;SDS011;57944;48.722;9.316;2024-02-15T06:01:36;13.00;;;7.57;;
2784;SDS011;57944;48.722;9.316;2024-02-15T06:04:08;8.93;;;6.60;;
2784;SDS011;57944;48.722;9.316;2024-02-15T06:06:39;11.33;;;7.80;;
2784;SDS011;57944;48.722;9.316;2024-02-15T06:09:10;12.23;;;7.70;;
2784;SDS011;57944;48.722;9.316;2024-02-15T06:11:41;11.83;;;6.83;;
2784;SDS011;57944;48.722;9.316;2024-02-15T06:14:15;9.47;;;8.10;;
2784;SDS011;57944;48.722;9.316;2024-02-15T06:16:46;10.07;;;7.53;;
2784;SDS011;57944;48.722;9.316;2024-02-15T06:19:18;13.77;;;7.53;;
2784;SDS011;57944;48.722;9.316;2024-02-15T06:21:48;15.23;;;8.70;;
2784;SDS011;57944;48.722;9.316;2024-02-15T06:24:19;10.80;;;7.50;;
2784;SDS011;57944;48.722;9.316;2024-02-15T06:26:50;12.80;;;7.90;;
2784;SDS011;57944;48.722;9.316;2024-02-15T06:29:29;12.90;;;7.90;;
2784;SDS011;57944;48.722;9.316;2024-02-15T06:32:12;10.97;;;7.60;;
2784;SDS011;57944;48.722;9.316;2024-02-15T06:34:55;8.83;;;6.37;;
2784;SDS011;57944;48.722;9.316;2024-02-15T06:37:39;13.37;;;6.90;;
2784;SDS011;57944;48.722;9.316;2024-02-15T06:40:22;11.73;;;8.23;;
2784;SDS011;57944;48.722;9.316;2024-02-15T06:42:53;9.13;;;6.50;;
2784;SDS011;57944;48.722;9.316;2024-02-15T06:45:26;14.00;;;7.87;;
2784;SDS011;57944;48.722;9.316;2024-02-15T06:47:58;13.30;;;7.70;;
2784;SDS011;57944;48.722;9.316;2024-02-15T06:50:29;13.63;;;7.90;;
2784;SDS011;57944;48.722;9.316;2024-02-15T06:53:00;10.10;;;7.43;;
2784;SDS011;57944;48.722;9.316;2024-02-15T06:55:31;9.37;;;6.63;;
2784;SDS011;57944;48.722;9.316;2024-02-15T06:58:03;11.97;;;7.07;;
2784;SDS011;57944;48.722;9.316;2024-02-15T07:00:36;10.20;;;6.77;;
2784;SDS011;57944;48.722;9.316;2024-02-15T07:03:07;10.90;;;7.80;;
2784;SDS011;57944;48.722;9.316;2024-02-15T07:05:37;12.80;;;10.07;;
2784;SDS011;57944;48.722;9.316;2024-02-15T07:08:08;12.70;;;7.97;;
2784;SDS011;57944;48.722;9.316;2024-02-15T07:10:39;15.13;;;10.37;;
2784;SDS011;57944;48.722;9.316;2024-02-15T07:13:10;11.20;;;7.63;;
2784;SDS011;57944;48.722;9.316;2024-02-15T07:15:44;14.03;;;8.37;;
2784;SDS011;57944;48.722;9.316;2024-02-15T07:18:15;13.87;;;8.03;;
2784;SDS011;57944;48.722;9.316;2024-02-15T07:20:54;12.87;;;9.60;;
2784;SDS011;57944;48.722;9.316;2024-02-15T07:23:28;11.57;;;7.57;;
2784;SDS011;57944;48.722;9.316;2024-02-15T07:26:03;11.90;;;8.17;;
2784;SDS011;57944;48.722;9.316;2024-02-15T07:28:34;17.07;;;8.97;;
2784;SDS011;57944;48.722;9.316;2024-02-15T07:31:07;17.47;;;9.73;;
2784;SDS011;57944;48.722;9.316;2024-02-15T07:33:38;24.30;;;9.17;;
2784;SDS011;57944;48.722;9.316;2024-02-15T07:36:10;9.03;;;7.40;;
2784;SDS011;57944;48.722;9.316;2024-02-15T07:38:40;13.73;;;8.10;;
2784;SDS011;57944;48.722;9.316;2024-02-15T07:41:12;15.03;;;8.33;;
2784;SDS011;57944;48.722;9.316;2024-02-15T07:43:44;11.87;;;7.37;;
2784;SDS011;57944;48.722;9.316;2024-02-15T07:46:17;8.50;;;7.43;;
2784;SDS011;57944;48.722;9.316;2024-02-15T07:48:48;11.07;;;7.20;;
2784;SDS011;57944;48.722;9.316;2024-02-15T07:51:19;14.90;;;8.70;;
2784;SDS011;57944;48.722;9.316;2024-02-15T07:53:52;15.87;;;8.50;;
2784;SDS011;57944;48.722;9.316;2024-02-15T07:56:22;13.00;;;8.00;;
2784;SDS011;57944;48.722;9.316;2024-02-15T07:58:53;20.97;;;7.93;;
2784;SDS011;57944;48.722;9.316;2024-02-15T08:01:26;17.33;;;8.13;;
2784;SDS011;57944;48.722;9.316;2024-02-15T08:03:57;16.27;;;8.60;;
2784;SDS011;57944;48.722;9.316;2024-02-15T08:06:28;10.50;;;7.73;;
2784;SDS011;57944;48.722;9.316;2024-02-15T08:08:59;8.17;;;6.80;;
2784;SDS011;57944;48.722;9.316;2024-02-15T08:11:31;11.47;;;7.97;;
2784;SDS011;57944;48.722;9.316;2024-02-15T08:14:02;9.80;;;6.60;;
2784;SDS011;57944;48.722;9.316;2024-02-15T08:16:41;12.00;;;8.17;;
2784;SDS011;57944;48.722;9.316;2024-02-15T08:19:12;21.77;;;8.40;;
2784;SDS011;57944;48.722;9.316;2024-02-15T08:21:43;14.37;;;9.17;;
2784;SDS011;57944;48.722;9.316;2024-02-15T08:24:17;11.47;;;7.50;;
2784;SDS011;57944;48.722;9.316;2024-02-15T08:26:48;11.00;;;7.33;;
2784;SDS011;57944;48.722;9.316;2024-02-15T08:29:20;20.17;;;7.40;;
2784;SDS011;57944;48.722;9.316;2024-02-15T08:31:53;15.33;;;7.77;;
2784;SDS011;57944;48.722;9.316;2024-02-15T08:34:25;13.13;;;7.40;;
2784;SDS011;57944;48.722;9.316;2024-02-15T08:36:55;9.60;;;7.23;;
2784;SDS011;57944;48.722;9.316;2024-02-15T08:39:26;7.40;;;5.33;;
2784;SDS011;57944;48.722;9.316;2024-02-15T08:41:56;12.70;;;7.13;;
2784;SDS011;57944;48.722;9.316;2024-02-15T08:44:28;11.10;;;6.20;;
2784;SDS011;57944;48.722;9.316;2024-02-15T08:47:03;8.80;;;6.10;;
2784;SDS011;57944;48.722;9.316;2024-02-15T08:49:34;9.13;;;5.13;;
2784;SDS011;57944;48.722;9.316;2024-02-15T08:52:07;14.30;;;9.20;;
2784;SDS011;57944;48.722;9.316;2024-02-15T08:54:37;11.57;;;6.80;;
2784;SDS011;57944;48.722;9.316;2024-02-15T08:57:08;15.10;;;6.63;;
2784;SDS011;57944;48.722;9.316;2024-02-15T08:59:40;9.40;;;5.30;;
2784;SDS011;57944;48.722;9.316;2024-02-15T09:02:13;11.97;;;4.87;;
2784;SDS011;57944;48.722;9.316;2024-02-15T09:04:44;11.60;;;5.90;;
2784;SDS011;57944;48.722;9.316;2024-02-15T09:07:15;8.13;;;5.27;;
2784;SDS011;57944;48.722;9.316;2024-02-15T09:09:47;8.13;;;5.33;;
2784;SDS011;57944;48.722;9.316;2024-02-15T09:12:18;12.23;;;5.40;;
2784;SDS011;57944;48.722;9.316;2024-02-15T09:14:49;10.13;;;6.13;;
2784;SDS011;57944;48.722;9.316;2024-02-15T09:17:22;12.20;;;5.10;;
2784;SDS011;57944;48.722;9.316;2024-02-15T09:19:53;7.37;;;4.57;;
2784;SDS011;57944;48.722;9.316;2024-02-15T09:22:24;15.03;;;4.90;;
2784;SDS011;57944;48.722;9.316;2024-02-15T09:24:55;7.40;;;4.83;;
2784;SDS011;57944;48.722;9.316;2024-02-15T09:27:25;10.10;;;4.40;;
2784;SDS011;57944;48.722;9.316;2024-02-15T09:29:56;7.30;;;4.33;;
2784;SDS011;57944;48.722;9.316;2024-02-15T09:32:29;7.13;;;4.93;;
2784;SDS011;57944;48.722;9.316;2024-02-15T09:35:01;16.77;;;5.27;;
2784;SDS011;57944;48.722;9.316;2024-02-15T09:37:34;6.00;;;3.90;;
2784;SDS011;57944;48.722;9.316;2024-02-15T09:40:08;11.80;;;7.10;;
2784;SDS011;57944;48.722;9.316;2024-02-15T09:42:39;6.83;;;4.87;;
2784;SDS011;57944;48.722;9.316;2024-02-15T09:45:11;7.30;;;4.83;;
2784;SDS011;57944;48.722;9.316;2024-02-15T09:47:47;12.57;;;5.00;;
2784;SDS011;57944;48.722;9.316;2024-02-15T09:50:19;6.40;;;4.70;;
2784;SDS011;57944;48.722;9.316;2024-02-15T09:52:52;7.90;;;5.23;;
2784;SDS011;57944;48.722;9.316;2024-02-15T09:55:23;6.57;;;4.73;;
2784;SDS011;57944;48.722;9.316;2024-02-15T09:57:55;12.10;;;4.60;;
2784;SDS011;57944;48.722;9.316;2024-02-15T10:00:26;8.90;;;4.57;;
2784;SDS011;57944;48.722;9.316;2024-02-15T10:02:59;7.43;;;4.73;;
2784;SDS011;57944;48.722;9.316;2024-02-15T10:05:31;7.20;;;3.83;;
2784;SDS011;57944;48.722;9.316;2024-02-15T10:08:03;7.23;;;4.97;;
2784;SDS011;57944;48.722;9.316;2024-02-15T10:10:34;10.00;;;4.00;;
2784;SDS011;57944;48.722;9.316;2024-02-15T10:13:05;9.17;;;4.90;;
2784;SDS011;57944;48.722;9.316;2024-02-15T10:15:41;10.93;;;5.13;;
2784;SDS011;57944;48.722;9.316;2024-02-15T10:18:17;6.73;;;4.30;;
2784;SDS011;57944;48.722;9.316;2024-02-15T10:20:57;8.00;;;4.87;;
2784;SDS011;57944;48.722;9.316;2024-02-15T10:23:27;10.40;;;4.30;;
2784;SDS011;57944;48.722;9.316;2024-02-15T10:25:58;9.27;;;4.10;;
2784;SDS011;57944;48.722;9.316;2024-02-15T10:28:29;13.23;;;4.97;;
2784;SDS011;57944;48.722;9.316;2024-02-15T10:30:59;8.80;;;4.40;;
2784;SDS011;57944;48.722;9.316;2024-02-15T10:33:42;7.03;;;4.63;;
2784;SDS011;57944;48.722;9.316;2024-02-15T10:36:13;9.43;;;4.60;;
2784;SDS011;57944;48.722;9.316;2024-02-15T10:38:46;10.03;;;4.20;;
2784;SDS011;57944;48.722;9.316;2024-02-15T10:41:16;8.77;;;4.67;;
2784;SDS011;57944;48.722;9.316;2024-02-15T10:43:48;8.63;;;4.40;;
2784;SDS011;57944;48.722;9.316;2024-02-15T10:46:20;7.03;;;4.53;;
2784;SDS011;57944;48.722;9.316;2024-02-15T10:48:55;5.80;;;4.00;;
2784;SDS011;57944;48.722;9.316;2024-02-15T10:51:26;10.17;;;5.60;;
2784;SDS011;57944;48.722;9.316;2024-02-15T10:53:57;7.47;;;3.20;;
2784;SDS011;57944;48.722;9.316;2024-02-15T10:56:33;4.27;;;2.17;;
2784;SDS011;57944;48.722;9.316;2024-02-15T10:59:10;5.03;;;2.10;;
2784;SDS011;57944;48.722;9.316;2024-02-15T11:01:46;14.87;;;2.67;;
2784;SDS011;57944;48.722;9.316;2024-02-15T11:04:24;5.73;;;1.73;;
2784;SDS011;57944;48.722;9.316;2024-02-15T11:07:00;5.93;;;2.13;;
2784;SDS011;57944;48.722;9.316;2024-02-15T11:09:33;6.00;;;2.27;;
2784;SDS011;57944;48.722;9.316;2024-02-15T11:12:05;11.23;;;2.50;;
2784;SDS011;57944;48.722;9.316;2024-02-15T11:14:38;4.83;;;1.97;;
2784;SDS011;57944;48.722;9.316;2024-02-15T11:17:44;4.43;;;2.30;;
2784;SDS011;57944;48.722;9.316;2024-02-15T11:23:25;10.63;;;3.10;;
2784;SDS011;57944;48.722;9.316;2024-02-15T11:26:03;6.00;;;2.53;;
2784;SDS011;57944;48.722;9.316;2024-02-15T11:28:38;5.07;;;1.97;;
2784;SDS011;57944;48.722;9.316;2024-02-15T11:31:09;5.93;;;1.90;;
2784;SDS011;57944;48.722;9.316;2024-02-15T11:37:06;6.17;;;2.13;;
2784;SDS011;57944;48.722;9.316;2024-02-15T11:39:40;7.40;;;2.23;;
2784;SDS011;57944;48.722;9.316;2024-02-15T11:42:24;10.13;;;3.07;;
2784;SDS011;57944;48.722;9.316;2024-02-15T11:45:04;4.77;;;2.30;;
2784;SDS011;57944;48.722;9.316;2024-02-15T11:47:36;4.80;;;2.00;;
2784;SDS011;57944;48.722;9.316;2024-02-15T11:50:09;7.07;;;2.00;;
2784;SDS011;57944;48.722;9.316;2024-02-15T11:52:44;5.17;;;1.87;;
2784;SDS011;57944;48.722;9.316;2024-02-15T11:55:17;5.50;;;1.87;;
2784;SDS011;57944;48.722;9.316;2024-02-15T11:57:55;5.63;;;1.83;;
2784;SDS011;57944;48.722;9.316;2024-02-15T12:00:43;8.47;;;2.97;;
2784;SDS011;57944;48.722;9.316;2024-02-15T12:03:27;5.03;;;2.53;;
2784;SDS011;57944;48.722;9.316;2024-02-15T12:06:16;15.00;;;3.83;;
2784;SDS011;57944;48.722;9.316;2024-02-15T12:09:02;7.97;;;3.20;;
2784;SDS011;57944;48.722;9.316;2024-02-15T12:11:46;7.70;;;3.73;;
2784;SDS011;57944;48.722;9.316;2024-02-15T12:14:38;7.63;;;3.70;;
2784;SDS011;57944;48.722;9.316;2024-02-15T12:17:23;9.27;;;3.60;;
2784;SDS011;57944;48.722;9.316;2024-02-15T12:20:14;7.57;;;2.90;;
2784;SDS011;57944;48.722;9.316;2024-02-15T12:22:52;3.93;;;1.90;;
2784;SDS011;57944;48.722;9.316;2024-02-15T12:25:25;3.10;;;1.60;;
2784;SDS011;57944;48.722;9.316;2024-02-15T12:28:00;4.73;;;2.10;;
2784;SDS011;57944;48.722;9.316;2024-02-15T12:30:33;7.33;;;2.93;;
2784;SDS011;57944;48.722;9.316;2024-02-15T12:33:10;7.07;;;3.37;;
2784;SDS011;57944;48.722;9.316;2024-02-15T12:35:47;5.30;;;2.53;;
2784;SDS011;57944;48.722;9.316;2024-02-15T12:38:19;9.20;;;2.47;;
2784;SDS011;57944;48.722;9.316;2024-02-15T12:40:52;4.10;;;1.70;;
2784;SDS011;57944;48.722;9.316;2024-02-15T12:43:23;8.70;;;2.43;;
2784;SDS011;57944;48.722;9.316;2024-02-15T12:45:54;3.90;;;2.17;;
2784;SDS011;57944;48.722;9.316;2024-02-15T12:48:25;4.90;;;1.97;;
2784;SDS011;57944;48.722;9.316;2024-02-15T12:50:55;5.10;;;1.57;;
2784;SDS011;57944;48.722;9.316;2024-02-15T12:53:28;3.33;;;1.87;;
2784;SDS011;57944;48.722;9.316;2024-02-15T12:56:01;7.10;;;2.40;;
2784;SDS011;57944;48.722;9.316;2024-02-15T12:58:32;3.50;;;1.93;;
2784;SDS011;57944;48.722;9.316;2024-02-15T13:01:03;4.60;;;2.00;;
2784;SDS011;57944;48.722;9.316;2024-02-15T13:03:36;4.53;;;1.70;;
2784;SDS011;57944;48.722;9.316;2024-02-15T13:06:07;4.33;;;1.57;;
2784;SDS011;57944;48.722;9.316;2024-02-15T13:08:37;5.10;;;2.13;;
2784;SDS011;57944;48.722;9.316;2024-02-15T13:11:10;4.63;;;2.00;;
2784;SDS011;57944;48.722;9.316;2024-02-15T13:13:42;3.60;;;1.60;;
2784;SDS011;57944;48.722;9.316;2024-02-15T13:16:12;2.80;;;1.40;;
2784;SDS011;57944;48.722;9.316;2024-02-15T13:18:44;5.40;;;1.73;;
2784;SDS011;57944;48.722;9.316;2024-02-15T13:21:16;4.20;;;2.10;;
2784;SDS011;57944;48.722;9.316;2024-02-15T13:23:47;4.07;;;1.90;;
2784;SDS011;57944;48.722;9.316;2024-02-15T13:26:20;3.67;;;1.70;;
2784;SDS011;57944;48.722;9.316;2024-02-15T13:28:52;4.57;;;1.93;;
2784;SDS011;57944;48.722;9.316;2024-02-15T13:31:22;6.03;;;1.60;;
2784;SDS011;57944;48.722;9.316;2024-02-15T13:33:53;6.87;;;2.20;;
2784;SDS011;57944;48.722;9.316;2024-02-15T13:36:24;4.07;;;2.00;;
2784;SDS011;57944;48.722;9.316;2024-02-15T13:38:55;5.13;;;3.50;;
2784;SDS011;57944;48.722;9.316;2024-02-15T13:41:29;4.53;;;2.17;;
2784;SDS011;57944;48.722;9.316;2024-02-15T13:43:59;3.57;;;2.00;;
2784;SDS011;57944;48.722;9.316;2024-02-15T13:46:31;8.47;;;2.33;;
2784;SDS011;57944;48.722;9.316;2024-02-15T13:49:01;4.63;;;1.80;;
2784;SDS011;57944;48.722;9.316;2024-02-15T13:51:41;6.00;;;2.27;;
2784;SDS011;57944;48.722;9.316;2024-02-15T13:54:12;3.60;;;2.17;;
2784;SDS011;57944;48.722;9.316;2024-02-15T13:56:45;3.83;;;1.87;;
2784;SDS011;57944;48.722;9.316;2024-02-15T13:59:16;7.57;;;2.40;;
2784;SDS011;57944;48.722;9.316;2024-02-15T14:01:47;5.33;;;1.93;;
2784;SDS011;57944;48.722;9.316;2024-02-15T14:04:17;6.67;;;2.00;;
2784;SDS011;57944;48.722;9.316;2024-02-15T14:06:48;3.63;;;2.03;;
2784;SDS011;57944;48.722;9.316;2024-02-15T14:09:19;4.47;;;2.10;;
2784;SDS011;57944;48.722;9.316;2024-02-15T14:11:55;5.17;;;2.10;;
2784;SDS011;57944;48.722;9.316;2024-02-15T14:14:28;3.73;;;1.90;;
2784;SDS011;57944;48.722;9.316;2024-02-15T14:16:59;8.23;;;2.00;;
2784;SDS011;57944;48.722;9.316;2024-02-15T14:19:29;7.93;;;1.97;;
2784;SDS011;57944;48.722;9.316;2024-02-15T14:22:00;5.13;;;1.70;;
2784;SDS011;57944;48.722;9.316;2024-02-15T14:24:35;4.10;;;2.57;;
2784;SDS011;57944;48.722;9.316;2024-02-15T14:27:08;4.07;;;2.37;;
2784;SDS011;57944;48.722;9.316;2024-02-15T14:29:41;5.20;;;2.27;;
2784;SDS011;57944;48.722;9.316;2024-02-15T14:32:33;3.83;;;2.30;;
2784;SDS011;57944;48.722;9.316;2024-02-15T14:35:17;7.37;;;2.33;;
2784;SDS011;57944;48.722;9.316;2024-02-15T14:37:48;5.37;;;1.80;;
2784;SDS011;57944;48.722;9.316;2024-02-15T14:40:19;6.63;;;2.07;;
2784;SDS011;57944;48.722;9.316;2024-02-15T14:42:55;4.10;;;2.10;;
2784;SDS011;57944;48.722;9.316;2024-02-15T14:45:26;3.93;;;2.10;;
2784;SDS011;57944;48.722;9.316;2024-02-15T14:48:00;4.97;;;1.97;;
2784;SDS011;57944;48.722;9.316;2024-02-15T14:50:32;3.13;;;1.97;;
2784;SDS011;57944;48.722;9.316;2024-02-15T14:53:03;6.47;;;3.37;;
2784;SDS011;57944;48.722;9.316;2024-02-15T14:55:34;5.40;;;2.67;;
2784;SDS011;57944;48.722;9.316;2024-02-15T14:58:08;5.43;;;2.60;;
2784;SDS011;57944;48.722;9.316;2024-02-15T15:00:44;9.40;;;2.30;;
2784;SDS011;57944;48.722;9.316;2024-02-15T15:03:15;5.13;;;2.10;;
2784;SDS011;57944;48.722;9.316;2024-02-15T15:05:48;12.27;;;2.73;;
2784;SDS011;57944;48.722;9.316;2024-02-15T15:08:31;4.83;;;2.17;;
2784;SDS011;57944;48.722;9.316;2024-02-15T15:11:15;6.47;;;1.90;;
2784;SDS011;57944;48.722;9.316;2024-02-15T15:14:00;6.67;;;2.80;;
2784;SDS011;57944;48.722;9.316;2024-02-15T15:16:32;10.40;;;2.63;;
2784;SDS011;57944;48.722;9.316;2024-02-15T15:19:03;5.97;;;2.23;;
2784;SDS011;57944;48.722;9.316;2024-02-15T15:21:34;5.57;;;3.07;;
2784;SDS011;57944;48.722;9.316;2024-02-15T15:24:05;6.77;;;2.60;;
2784;SDS011;57944;48.722;9.316;2024-02-15T15:26:38;5.47;;;2.30;;
2784;SDS011;57944;48.722;9.316;2024-02-15T15:29:11;6.53;;;2.80;;
2784;SDS011;57944;48.722;9.316;2024-02-15T15:31:42;6.13;;;2.20;;
2784;SDS011;57944;48.722;9.316;2024-02-15T15:34:13;5.20;;;2.60;;
2784;SDS011;57944;48.722;9.316;2024-02-15T15:36:46;9.20;;;3.10;;
2784;SDS011;57944;48.722;9.316;2024-02-15T15:39:18;11.60;;;4.23;;